sensor_id;sensor_type;location;lat;lon;timestamp;P1;durP1;ratioP1;P2;durP2;ratioP2
7033;SDS011;3558;53.176;10.412;2023-10-08T04:31:46;2.08;;;1.08;;
7033;SDS011;3558;53.176;10.412;2023-10-08T04:34:19;2.83;;;1.20;;
7033;SDS011;3558;53.176;10.412;2023-10-08T04:36:48;2.15;;;1.00;;
7033;SDS011;3558;53.176;10.412;2023-10-08T04:39:19;3.20;;;1.08;;
7033;SDS011;3558;53.176;10.412;2023-10-08T04:41:51;2.05;;;0.93;;
7033;SDS011;3558;53.176;10.412;2023-10-08T04:44:19;1.83;;;0.93;;
7033;SDS011;3558;53.176;10.412;2023-10-08T04:46:46;2.25;;;1.10;;
7033;SDS011;3558;53.176;10.412;2023-10-08T04:49:13;2.80;;;0.98;;
7033;SDS011;3558;53.176;10.412;2023-10-08T04:51:53;3.40;;;1.00;;
7033;SDS011;3558;53.176;10.412;2023-10-08T04:54:22;2.17;;;1.02;;
7033;SDS011;3558;53.176;10.412;2023-10-08T04:56:55;2.60;;;1.00;;
7033;SDS011;3558;53.176;10.412;2023-10-08T04:59:22;2.78;;;1.08;;
7033;SDS011;3558;53.176;10.412;2023-10-08T05:01:57;1.60;;;0.90;;
7033;SDS011;3558;53.176;10.412;2023-10-08T05:04:44;2.13;;;0.95;;
7033;SDS011;3558;53.176;10.412;2023-10-08T05:07:32;2.80;;;0.90;;
7033;SDS011;3558;53.176;10.412;2023-10-08T05:10:10;2.33;;;1.00;;
7033;SDS011;3558;53.176;10.412;2023-10-08T05:12:56;2.58;;;1.00;;
7033;SDS011;3558;53.176;10.412;2023-10-08T05:15:28;2.53;;;1.00;;
7033;SDS011;3558;53.176;10.412;2023-10-08T05:18:12;2.65;;;1.15;;
7033;SDS011;3558;53.176;10.412;2023-10-08T05:20:44;2.30;;;1.02;;
7033;SDS011;3558;53.176;10.412;2023-10-08T05:23:17;3.10;;;1.10;;
7033;SDS011;3558;53.176;10.412;2023-10-08T05:25:47;1.58;;;0.82;;
7033;SDS011;3558;53.176;10.412;2023-10-08T05:28:31;2.75;;;1.05;;
7033;SDS011;3558;53.176;10.412;2023-10-08T05:31:26;3.38;;;1.05;;
7033;SDS011;3558;53.176;10.412;2023-10-08T05:34:12;2.88;;;0.90;;
7033;SDS011;3558;53.176;10.412;2023-10-08T05:36:57;2.13;;;0.90;;
7033;SDS011;3558;53.176;10.412;2023-10-08T05:39:25;2.90;;;1.00;;
7033;SDS011;3558;53.176;10.412;2023-10-08T05:42:08;2.00;;;0.90;;
7033;SDS011;3558;53.176;10.412;2023-10-08T05:44:56;1.83;;;1.00;;
7033;SDS011;3558;53.176;10.412;2023-10-08T05:47:31;2.40;;;1.00;;
7033;SDS011;3558;53.176;10.412;2023-10-08T05:49:56;2.60;;;1.00;;
7033;SDS011;3558;53.176;10.412;2023-10-08T05:52:41;1.30;;;0.73;;
7033;SDS011;3558;53.176;10.412;2023-10-08T05:55:22;2.17;;;1.00;;
7033;SDS011;3558;53.176;10.412;2023-10-08T05:57:55;2.72;;;0.90;;
7033;SDS011;3558;53.176;10.412;2023-10-08T06:00:49;1.80;;;0.95;;
7033;SDS011;3558;53.176;10.412;2023-10-08T06:03:19;1.75;;;0.85;;
7033;SDS011;3558;53.176;10.412;2023-10-08T06:06:07;1.42;;;0.80;;
7033;SDS011;3558;53.176;10.412;2023-10-08T06:08:36;1.73;;;1.00;;
7033;SDS011;3558;53.176;10.412;2023-10-08T06:11:20;2.20;;;0.80;;
7033;SDS011;3558;53.176;10.412;2023-10-08T06:14:04;1.30;;;0.73;;
7033;SDS011;3558;53.176;10.412;2023-10-08T06:16:38;2.55;;;0.82;;
7033;SDS011;3558;53.176;10.412;2023-10-08T06:19:09;1.10;;;0.70;;
7033;SDS011;3558;53.176;10.412;2023-10-08T06:21:39;1.77;;;0.90;;
7033;SDS011;3558;53.176;10.412;2023-10-08T06:24:06;1.40;;;1.02;;
7033;SDS011;3558;53.176;10.412;2023-10-08T06:26:35;2.13;;;1.00;;
7033;SDS011;3558;53.176;10.412;2023-10-08T06:29:07;1.73;;;1.10;;
7033;SDS011;3558;53.176;10.412;2023-10-08T06:31:52;2.83;;;0.85;;
7033;SDS011;3558;53.176;10.412;2023-10-08T06:34:27;2.70;;;1.00;;
7033;SDS011;3558;53.176;10.412;2023-10-08T06:36:54;2.65;;;0.90;;
7033;SDS011;3558;53.176;10.412;2023-10-08T06:39:23;1.35;;;0.80;;
7033;SDS011;3558;53.176;10.412;2023-10-08T06:41:53;2.40;;;0.90;;
7033;SDS011;3558;53.176;10.412;2023-10-08T06:44:22;3.22;;;1.15;;
7033;SDS011;3558;53.176;10.412;2023-10-08T06:46:47;1.98;;;1.00;;
7033;SDS011;3558;53.176;10.412;2023-10-08T06:49:13;1.97;;;0.80;;
7033;SDS011;3558;53.176;10.412;2023-10-08T06:51:39;1.93;;;0.90;;
7033;SDS011;3558;53.176;10.412;2023-10-08T06:54:06;2.17;;;0.90;;
7033;SDS011;3558;53.176;10.412;2023-10-08T06:56:35;1.55;;;0.85;;
7033;SDS011;3558;53.176;10.412;2023-10-08T06:59:01;1.83;;;1.00;;
7033;SDS011;3558;53.176;10.412;2023-10-08T07:01:27;1.98;;;0.95;;
7033;SDS011;3558;53.176;10.412;2023-10-08T07:04:03;1.65;;;0.98;;
7033;SDS011;3558;53.176;10.412;2023-10-08T07:06:37;3.08;;;0.98;;
7033;SDS011;3558;53.176;10.412;2023-10-08T07:09:07;2.50;;;1.10;;
7033;SDS011;3558;53.176;10.412;2023-10-08T07:11:47;2.72;;;0.90;;
7033;SDS011;3558;53.176;10.412;2023-10-08T07:14:19;2.17;;;0.93;;
7033;SDS011;3558;53.176;10.412;2023-10-08T07:16:47;2.67;;;0.93;;
7033;SDS011;3558;53.176;10.412;2023-10-08T07:19:17;2.17;;;1.10;;
7033;SDS011;3558;53.176;10.412;2023-10-08T07:21:45;1.38;;;0.98;;
7033;SDS011;3558;53.176;10.412;2023-10-08T07:24:14;1.83;;;1.00;;
7033;SDS011;3558;53.176;10.412;2023-10-08T07:26:42;1.63;;;0.80;;
7033;SDS011;3558;53.176;10.412;2023-10-08T07:29:15;2.03;;;1.00;;
7033;SDS011;3558;53.176;10.412;2023-10-08T07:31:44;1.98;;;0.90;;
7033;SDS011;3558;53.176;10.412;2023-10-08T07:34:17;1.73;;;0.90;;
7033;SDS011;3558;53.176;10.412;2023-10-08T07:36:50;1.98;;;0.98;;
7033;SDS011;3558;53.176;10.412;2023-10-08T07:39:16;1.42;;;0.75;;
7033;SDS011;3558;53.176;10.412;2023-10-08T07:42:01;1.40;;;0.90;;
7033;SDS011;3558;53.176;10.412;2023-10-08T07:44:33;1.67;;;0.73;;
7033;SDS011;3558;53.176;10.412;2023-10-08T07:47:03;1.45;;;0.70;;
7033;SDS011;3558;53.176;10.412;2023-10-08T07:49:31;2.30;;;0.88;;
7033;SDS011;3558;53.176;10.412;2023-10-08T07:51:57;1.88;;;0.98;;
7033;SDS011;3558;53.176;10.412;2023-10-08T07:54:24;1.58;;;0.80;;
7033;SDS011;3558;53.176;10.412;2023-10-08T07:56:52;1.92;;;0.80;;
7033;SDS011;3558;53.176;10.412;2023-10-08T07:59:39;1.33;;;0.80;;
7033;SDS011;3558;53.176;10.412;2023-10-08T08:02:12;2.45;;;0.80;;
7033;SDS011;3558;53.176;10.412;2023-10-08T08:04:39;2.25;;;0.90;;
7033;SDS011;3558;53.176;10.412;2023-10-08T08:07:09;2.10;;;0.90;;
7033;SDS011;3558;53.176;10.412;2023-10-08T08:09:41;2.00;;;0.90;;
7033;SDS011;3558;53.176;10.412;2023-10-08T08:12:16;2.30;;;0.90;;
7033;SDS011;3558;53.176;10.412;2023-10-08T08:14:41;1.70;;;0.80;;
7033;SDS011;3558;53.176;10.412;2023-10-08T08:17:09;2.07;;;0.87;;
7033;SDS011;3558;53.176;10.412;2023-10-08T08:19:39;1.92;;;0.80;;
7033;SDS011;3558;53.176;10.412;2023-10-08T08:22:05;1.80;;;0.80;;
7033;SDS011;3558;53.176;10.412;2023-10-08T08:24:31;1.73;;;0.88;;
7033;SDS011;3558;53.176;10.412;2023-10-08T08:27:00;1.75;;;0.80;;
7033;SDS011;3558;53.176;10.412;2023-10-08T08:29:32;2.00;;;1.00;;
7033;SDS011;3558;53.176;10.412;2023-10-08T08:32:09;1.80;;;0.95;;
7033;SDS011;3558;53.176;10.412;2023-10-08T08:34:37;1.95;;;0.80;;
7033;SDS011;3558;53.176;10.412;2023-10-08T08:37:03;1.90;;;0.90;;
7033;SDS011;3558;53.176;10.412;2023-10-08T08:39:28;2.27;;;1.10;;
7033;SDS011;3558;53.176;10.412;2023-10-08T08:42:00;2.60;;;1.10;;
7033;SDS011;3558;53.176;10.412;2023-10-08T08:44:29;3.05;;;1.00;;
7033;SDS011;3558;53.176;10.412;2023-10-08T08:46:57;3.15;;;1.10;;
7033;SDS011;3558;53.176;10.412;2023-10-08T08:49:24;2.05;;;0.93;;
7033;SDS011;3558;53.176;10.412;2023-10-08T08:51:52;1.92;;;1.00;;
7033;SDS011;3558;53.176;10.412;2023-10-08T08:54:20;2.80;;;1.10;;
7033;SDS011;3558;53.176;10.412;2023-10-08T08:56:46;2.07;;;0.90;;
7033;SDS011;3558;53.176;10.412;2023-10-08T08:59:13;1.83;;;0.90;;
7033;SDS011;3558;53.176;10.412;2023-10-08T09:01:39;2.90;;;1.00;;
7033;SDS011;3558;53.176;10.412;2023-10-08T09:04:06;1.70;;;0.80;;
7033;SDS011;3558;53.176;10.412;2023-10-08T09:06:32;2.05;;;1.05;;
7033;SDS011;3558;53.176;10.412;2023-10-08T09:09:04;1.70;;;0.90;;
7033;SDS011;3558;53.176;10.412;2023-10-08T09:11:46;1.85;;;0.90;;
7033;SDS011;3558;53.176;10.412;2023-10-08T09:14:20;2.03;;;0.80;;
7033;SDS011;3558;53.176;10.412;2023-10-08T09:16:47;2.25;;;0.93;;
7033;SDS011;3558;53.176;10.412;2023-10-08T09:19:15;1.35;;;0.88;;
7033;SDS011;3558;53.176;10.412;2023-10-08T09:24:29;1.48;;;0.80;;
7033;SDS011;3558;53.176;10.412;2023-10-08T09:26:55;1.42;;;0.80;;
7033;SDS011;3558;53.176;10.412;2023-10-08T09:29:23;2.30;;;1.10;;
7033;SDS011;3558;53.176;10.412;2023-10-08T09:31:58;1.08;;;0.75;;
7033;SDS011;3558;53.176;10.412;2023-10-08T09:34:30;2.57;;;1.17;;
7033;SDS011;3558;53.176;10.412;2023-10-08T09:36:56;1.77;;;0.90;;
7033;SDS011;3558;53.176;10.412;2023-10-08T09:39:25;1.90;;;0.98;;
7033;SDS011;3558;53.176;10.412;2023-10-08T09:41:53;1.73;;;1.00;;
7033;SDS011;3558;53.176;10.412;2023-10-08T09:44:20;1.50;;;0.77;;
7033;SDS011;3558;53.176;10.412;2023-10-08T09:46:51;2.30;;;1.00;;
7033;SDS011;3558;53.176;10.412;2023-10-08T09:49:22;2.40;;;0.82;;
7033;SDS011;3558;53.176;10.412;2023-10-08T09:51:54;1.63;;;0.90;;
7033;SDS011;3558;53.176;10.412;2023-10-08T09:54:22;2.08;;;0.80;;
7033;SDS011;3558;53.176;10.412;2023-10-08T09:56:50;1.90;;;0.80;;
7033;SDS011;3558;53.176;10.412;2023-10-08T09:59:17;2.30;;;0.98;;
7033;SDS011;3558;53.176;10.412;2023-10-08T10:01:44;1.55;;;0.85;;
7033;SDS011;3558;53.176;10.412;2023-10-08T10:04:12;1.50;;;0.83;;
7033;SDS011;3558;53.176;10.412;2023-10-08T10:06:48;1.45;;;0.77;;
7033;SDS011;3558;53.176;10.412;2023-10-08T10:09:22;1.83;;;0.90;;
7033;SDS011;3558;53.176;10.412;2023-10-08T10:11:49;1.00;;;0.70;;
7033;SDS011;3558;53.176;10.412;2023-10-08T10:14:17;1.00;;;0.70;;
7033;SDS011;3558;53.176;10.412;2023-10-08T10:19:34;2.78;;;0.90;;
7033;SDS011;3558;53.176;10.412;2023-10-08T10:22:01;2.47;;;0.70;;
7033;SDS011;3558;53.176;10.412;2023-10-08T10:24:35;1.67;;;0.80;;
7033;SDS011;3558;53.176;10.412;2023-10-08T10:27:15;0.95;;;0.63;;
7033;SDS011;3558;53.176;10.412;2023-10-08T10:29:41;1.98;;;0.63;;
7033;SDS011;3558;53.176;10.412;2023-10-08T10:32:09;1.00;;;0.70;;
7033;SDS011;3558;53.176;10.412;2023-10-08T10:34:38;1.45;;;0.70;;
7033;SDS011;3558;53.176;10.412;2023-10-08T10:37:04;1.35;;;0.70;;
7033;SDS011;3558;53.176;10.412;2023-10-08T10:39:55;1.58;;;0.77;;
7033;SDS011;3558;53.176;10.412;2023-10-08T10:42:24;1.58;;;0.70;;
7033;SDS011;3558;53.176;10.412;2023-10-08T10:44:52;1.27;;;0.80;;
7033;SDS011;3558;53.176;10.412;2023-10-08T10:47:18;1.10;;;0.68;;
7033;SDS011;3558;53.176;10.412;2023-10-08T10:49:50;1.58;;;0.77;;
7033;SDS011;3558;53.176;10.412;2023-10-08T10:52:31;1.00;;;0.70;;
7033;SDS011;3558;53.176;10.412;2023-10-08T10:54:59;1.60;;;0.70;;
7033;SDS011;3558;53.176;10.412;2023-10-08T10:57:40;1.27;;;0.65;;
7033;SDS011;3558;53.176;10.412;2023-10-08T11:00:07;1.45;;;0.75;;
7033;SDS011;3558;53.176;10.412;2023-10-08T11:02:52;1.80;;;0.70;;
7033;SDS011;3558;53.176;10.412;2023-10-08T11:05:21;1.53;;;0.90;;
7033;SDS011;3558;53.176;10.412;2023-10-08T11:07:53;1.25;;;0.60;;
7033;SDS011;3558;53.176;10.412;2023-10-08T11:10:30;1.10;;;0.60;;
7033;SDS011;3558;53.176;10.412;2023-10-08T11:12:56;1.25;;;0.68;;
7033;SDS011;3558;53.176;10.412;2023-10-08T11:15:26;1.20;;;0.70;;
7033;SDS011;3558;53.176;10.412;2023-10-08T11:18:12;1.08;;;0.65;;
7033;SDS011;3558;53.176;10.412;2023-10-08T11:20:41;1.05;;;0.60;;
7033;SDS011;3558;53.176;10.412;2023-10-08T11:23:11;1.15;;;0.73;;
7033;SDS011;3558;53.176;10.412;2023-10-08T11:25:58;1.38;;;0.75;;
7033;SDS011;3558;53.176;10.412;2023-10-08T11:28:27;1.42;;;0.80;;
7033;SDS011;3558;53.176;10.412;2023-10-08T11:30:54;1.50;;;0.80;;
7033;SDS011;3558;53.176;10.412;2023-10-08T11:33:22;1.30;;;0.70;;
7033;SDS011;3558;53.176;10.412;2023-10-08T11:38:25;1.17;;;0.75;;
7033;SDS011;3558;53.176;10.412;2023-10-08T11:40:52;1.27;;;0.85;;
7033;SDS011;3558;53.176;10.412;2023-10-08T11:43:23;1.43;;;0.80;;
7033;SDS011;3558;53.176;10.412;2023-10-08T11:45:49;1.07;;;0.70;;
7033;SDS011;3558;53.176;10.412;2023-10-08T11:48:15;1.20;;;0.68;;
7033;SDS011;3558;53.176;10.412;2023-10-08T11:50:47;1.55;;;0.70;;
7033;SDS011;3558;53.176;10.412;2023-10-08T11:53:15;1.50;;;0.80;;
7033;SDS011;3558;53.176;10.412;2023-10-08T11:55:41;1.30;;;0.77;;
7033;SDS011;3558;53.176;10.412;2023-10-08T11:58:07;0.83;;;0.67;;
7033;SDS011;3558;53.176;10.412;2023-10-08T12:00:37;1.25;;;0.60;;
7033;SDS011;3558;53.176;10.412;2023-10-08T12:03:10;0.88;;;0.70;;
7033;SDS011;3558;53.176;10.412;2023-10-08T12:05:45;1.30;;;0.50;;
7033;SDS011;3558;53.176;10.412;2023-10-08T12:08:15;1.00;;;0.57;;
7033;SDS011;3558;53.176;10.412;2023-10-08T12:10:43;1.17;;;0.63;;
7033;SDS011;3558;53.176;10.412;2023-10-08T12:13:08;0.60;;;0.50;;
7033;SDS011;3558;53.176;10.412;2023-10-08T12:15:35;1.10;;;0.60;;
7033;SDS011;3558;53.176;10.412;2023-10-08T12:18:04;0.80;;;0.60;;
7033;SDS011;3558;53.176;10.412;2023-10-08T12:20:48;1.15;;;0.60;;
7033;SDS011;3558;53.176;10.412;2023-10-08T12:23:13;0.70;;;0.53;;
7033;SDS011;3558;53.176;10.412;2023-10-08T12:25:49;1.03;;;0.57;;
7033;SDS011;3558;53.176;10.412;2023-10-08T12:28:20;0.80;;;0.60;;
7033;SDS011;3558;53.176;10.412;2023-10-08T12:30:48;0.82;;;0.60;;
7033;SDS011;3558;53.176;10.412;2023-10-08T12:33:17;0.95;;;0.60;;
7033;SDS011;3558;53.176;10.412;2023-10-08T12:35:44;0.90;;;0.60;;
7033;SDS011;3558;53.176;10.412;2023-10-08T12:38:12;1.30;;;0.60;;
7033;SDS011;3558;53.176;10.412;2023-10-08T12:40:39;0.87;;;0.60;;
7033;SDS011;3558;53.176;10.412;2023-10-08T12:43:12;0.80;;;0.52;;
7033;SDS011;3558;53.176;10.412;2023-10-08T12:45:44;1.20;;;0.63;;
7033;SDS011;3558;53.176;10.412;2023-10-08T12:48:20;1.20;;;0.70;;
7033;SDS011;3558;53.176;10.412;2023-10-08T12:50:46;1.35;;;0.80;;
7033;SDS011;3558;53.176;10.412;2023-10-08T12:53:18;1.10;;;0.68;;
7033;SDS011;3558;53.176;10.412;2023-10-08T12:55:48;0.85;;;0.55;;
7033;SDS011;3558;53.176;10.412;2023-10-08T12:58:18;1.45;;;0.75;;
7033;SDS011;3558;53.176;10.412;2023-10-08T13:00:44;1.20;;;0.73;;
7033;SDS011;3558;53.176;10.412;2023-10-08T13:03:14;1.70;;;0.70;;
7033;SDS011;3558;53.176;10.412;2023-10-08T13:05:43;1.70;;;0.70;;
7033;SDS011;3558;53.176;10.412;2023-10-08T13:08:12;1.20;;;0.60;;
7033;SDS011;3558;53.176;10.412;2023-10-08T13:10:38;0.98;;;0.60;;
7033;SDS011;3558;53.176;10.412;2023-10-08T13:13:09;1.83;;;0.70;;
7033;SDS011;3558;53.176;10.412;2023-10-08T13:15:36;1.00;;;0.70;;
7033;SDS011;3558;53.176;10.412;2023-10-08T13:18:01;1.30;;;0.60;;
7033;SDS011;3558;53.176;10.412;2023-10-08T13:20:30;1.13;;;0.60;;
7033;SDS011;3558;53.176;10.412;2023-10-08T13:23:00;1.48;;;0.70;;
7033;SDS011;3558;53.176;10.412;2023-10-08T13:25:26;1.00;;;0.60;;
7033;SDS011;3558;53.176;10.412;2023-10-08T13:27:52;1.13;;;0.60;;
7033;SDS011;3558;53.176;10.412;2023-10-08T13:30:17;1.13;;;0.60;;
7033;SDS011;3558;53.176;10.412;2023-10-08T13:32:43;2.27;;;0.70;;
7033;SDS011;3558;53.176;10.412;2023-10-08T13:35:08;0.98;;;0.68;;
7033;SDS011;3558;53.176;10.412;2023-10-08T13:37:36;1.02;;;0.60;;
7033;SDS011;3558;53.176;10.412;2023-10-08T13:40:02;1.10;;;0.70;;
7033;SDS011;3558;53.176;10.412;2023-10-08T13:42:28;1.30;;;0.63;;
7033;SDS011;3558;53.176;10.412;2023-10-08T13:44:54;1.63;;;0.70;;
7033;SDS011;3558;53.176;10.412;2023-10-08T13:47:22;0.93;;;0.63;;
7033;SDS011;3558;53.176;10.412;2023-10-08T13:49:54;1.45;;;0.60;;
7033;SDS011;3558;53.176;10.412;2023-10-08T13:52:22;0.77;;;0.50;;
7033;SDS011;3558;53.176;10.412;2023-10-08T13:54:51;1.33;;;0.70;;
7033;SDS011;3558;53.176;10.412;2023-10-08T13:57:21;1.55;;;0.70;;
7033;SDS011;3558;53.176;10.412;2023-10-08T13:59:47;1.25;;;0.75;;
7033;SDS011;3558;53.176;10.412;2023-10-08T14:02:13;1.07;;;0.70;;
7033;SDS011;3558;53.176;10.412;2023-10-08T14:04:44;0.90;;;0.57;;
7033;SDS011;3558;53.176;10.412;2023-10-08T14:07:10;0.93;;;0.60;;
7033;SDS011;3558;53.176;10.412;2023-10-08T14:09:42;1.10;;;0.63;;
7033;SDS011;3558;53.176;10.412;2023-10-08T14:12:10;1.13;;;0.70;;
7033;SDS011;3558;53.176;10.412;2023-10-08T14:14:36;0.88;;;0.70;;
7033;SDS011;3558;53.176;10.412;2023-10-08T14:17:06;1.70;;;0.80;;
7033;SDS011;3558;53.176;10.412;2023-10-08T14:19:32;1.30;;;0.70;;
7033;SDS011;3558;53.176;10.412;2023-10-08T14:22:24;1.47;;;0.80;;
7033;SDS011;3558;53.176;10.412;2023-10-08T14:24:50;1.20;;;0.70;;
7033;SDS011;3558;53.176;10.412;2023-10-08T14:27:25;1.02;;;0.68;;
7033;SDS011;3558;53.176;10.412;2023-10-08T14:29:56;1.00;;;0.60;;
7033;SDS011;3558;53.176;10.412;2023-10-08T14:32:26;1.33;;;0.80;;
7033;SDS011;3558;53.176;10.412;2023-10-08T14:34:52;1.10;;;0.68;;
7033;SDS011;3558;53.176;10.412;2023-10-08T14:37:21;1.20;;;0.63;;
7033;SDS011;3558;53.176;10.412;2023-10-08T14:40:06;1.23;;;0.80;;
7033;SDS011;3558;53.176;10.412;2023-10-08T14:42:50;1.08;;;0.60;;
7033;SDS011;3558;53.176;10.412;2023-10-08T14:45:23;1.23;;;0.68;;
7033;SDS011;3558;53.176;10.412;2023-10-08T14:47:51;1.40;;;0.80;;
7033;SDS011;3558;53.176;10.412;2023-10-08T14:50:21;1.70;;;0.70;;
7033;SDS011;3558;53.176;10.412;2023-10-08T14:52:57;1.40;;;0.65;;
7033;SDS011;3558;53.176;10.412;2023-10-08T14:55:26;1.20;;;0.70;;
7033;SDS011;3558;53.176;10.412;2023-10-08T14:57:51;0.90;;;0.60;;
7033;SDS011;3558;53.176;10.412;2023-10-08T15:00:18;1.00;;;0.70;;
7033;SDS011;3558;53.176;10.412;2023-10-08T15:02:49;1.77;;;0.80;;
7033;SDS011;3558;53.176;10.412;2023-10-08T15:05:16;1.83;;;0.77;;
7033;SDS011;3558;53.176;10.412;2023-10-08T15:07:42;1.53;;;0.90;;
7033;SDS011;3558;53.176;10.412;2023-10-08T15:10:08;1.00;;;0.63;;
7033;SDS011;3558;53.176;10.412;2023-10-08T15:12:34;1.20;;;0.70;;
7033;SDS011;3558;53.176;10.412;2023-10-08T15:14:59;1.00;;;0.70;;
7033;SDS011;3558;53.176;10.412;2023-10-08T15:17:37;1.17;;;0.70;;
7033;SDS011;3558;53.176;10.412;2023-10-08T15:20:09;1.25;;;0.73;;
7033;SDS011;3558;53.176;10.412;2023-10-08T15:22:41;1.20;;;0.90;;
7033;SDS011;3558;53.176;10.412;2023-10-08T15:25:08;1.50;;;0.68;;
7033;SDS011;3558;53.176;10.412;2023-10-08T15:27:35;1.50;;;0.88;;
7033;SDS011;3558;53.176;10.412;2023-10-08T15:30:06;1.58;;;0.82;;
7033;SDS011;3558;53.176;10.412;2023-10-08T15:32:36;1.70;;;0.80;;
7033;SDS011;3558;53.176;10.412;2023-10-08T15:35:02;1.35;;;0.88;;
7033;SDS011;3558;53.176;10.412;2023-10-08T15:37:28;1.70;;;1.08;;
7033;SDS011;3558;53.176;10.412;2023-10-08T15:39:53;2.53;;;1.07;;
7033;SDS011;3558;53.176;10.412;2023-10-08T15:42:19;1.70;;;1.00;;
7033;SDS011;3558;53.176;10.412;2023-10-08T15:44:44;1.90;;;1.00;;
7033;SDS011;3558;53.176;10.412;2023-10-08T15:47:10;2.03;;;1.03;;
7033;SDS011;3558;53.176;10.412;2023-10-08T15:49:35;2.20;;;1.20;;
7033;SDS011;3558;53.176;10.412;2023-10-08T15:52:01;2.13;;;1.40;;
7033;SDS011;3558;53.176;10.412;2023-10-08T15:54:26;2.25;;;1.60;;
7033;SDS011;3558;53.176;10.412;2023-10-08T15:56:51;3.47;;;1.90;;
7033;SDS011;3558;53.176;10.412;2023-10-08T15:59:17;4.10;;;2.25;;
7033;SDS011;3558;53.176;10.412;2023-10-08T16:01:42;5.27;;;2.73;;
7033;SDS011;3558;53.176;10.412;2023-10-08T16:04:11;4.30;;;2.60;;
7033;SDS011;3558;53.176;10.412;2023-10-08T16:06:36;3.93;;;2.70;;
7033;SDS011;3558;53.176;10.412;2023-10-08T16:09:02;4.10;;;2.47;;
7033;SDS011;3558;53.176;10.412;2023-10-08T16:11:29;4.17;;;2.57;;
7033;SDS011;3558;53.176;10.412;2023-10-08T16:13:55;3.47;;;2.17;;
7033;SDS011;3558;53.176;10.412;2023-10-08T16:16:21;3.27;;;1.97;;
7033;SDS011;3558;53.176;10.412;2023-10-08T16:18:46;2.83;;;1.65;;
7033;SDS011;3558;53.176;10.412;2023-10-08T16:21:13;3.15;;;1.90;;
7033;SDS011;3558;53.176;10.412;2023-10-08T16:23:39;2.80;;;1.73;;
7033;SDS011;3558;53.176;10.412;2023-10-08T16:26:06;2.83;;;1.90;;
7033;SDS011;3558;53.176;10.412;2023-10-08T16:28:34;3.33;;;1.77;;
7033;SDS011;3558;53.176;10.412;2023-10-08T16:31:00;3.35;;;1.90;;
7033;SDS011;3558;53.176;10.412;2023-10-08T16:33:25;2.77;;;1.70;;
7033;SDS011;3558;53.176;10.412;2023-10-08T16:35:54;2.78;;;1.70;;
7033;SDS011;3558;53.176;10.412;2023-10-08T16:38:20;2.90;;;1.60;;
7033;SDS011;3558;53.176;10.412;2023-10-08T16:40:46;2.47;;;1.70;;
7033;SDS011;3558;53.176;10.412;2023-10-08T16:43:12;1.93;;;1.63;;
7033;SDS011;3558;53.176;10.412;2023-10-08T16:45:41;2.35;;;1.60;;
7033;SDS011;3558;53.176;10.412;2023-10-08T16:48:08;3.17;;;1.50;;
7033;SDS011;3558;53.176;10.412;2023-10-08T16:50:34;2.30;;;1.50;;
7033;SDS011;3558;53.176;10.412;2023-10-08T16:52:59;2.43;;;1.27;;
7033;SDS011;3558;53.176;10.412;2023-10-08T16:55:25;1.98;;;1.30;;
7033;SDS011;3558;53.176;10.412;2023-10-08T16:57:51;3.13;;;1.50;;
7033;SDS011;3558;53.176;10.412;2023-10-08T17:00:16;1.90;;;1.23;;
7033;SDS011;3558;53.176;10.412;2023-10-08T17:02:42;2.30;;;1.25;;
7033;SDS011;3558;53.176;10.412;2023-10-08T17:05:08;1.80;;;1.20;;
7033;SDS011;3558;53.176;10.412;2023-10-08T17:07:38;2.55;;;1.23;;
7033;SDS011;3558;53.176;10.412;2023-10-08T17:10:04;2.22;;;1.27;;
7033;SDS011;3558;53.176;10.412;2023-10-08T17:12:31;2.45;;;1.25;;
7033;SDS011;3558;53.176;10.412;2023-10-08T17:14:58;2.15;;;1.38;;
7033;SDS011;3558;53.176;10.412;2023-10-08T17:17:24;2.30;;;1.48;;
7033;SDS011;3558;53.176;10.412;2023-10-08T17:19:50;2.55;;;1.30;;
7033;SDS011;3558;53.176;10.412;2023-10-08T17:22:16;2.37;;;1.50;;
7033;SDS011;3558;53.176;10.412;2023-10-08T17:24:41;1.88;;;1.25;;
7033;SDS011;3558;53.176;10.412;2023-10-08T17:27:07;2.85;;;1.15;;
7033;SDS011;3558;53.176;10.412;2023-10-08T17:29:37;2.65;;;1.20;;
7033;SDS011;3558;53.176;10.412;2023-10-08T17:32:02;2.43;;;1.37;;
7033;SDS011;3558;53.176;10.412;2023-10-08T17:34:28;2.30;;;1.20;;
7033;SDS011;3558;53.176;10.412;2023-10-08T17:36:55;1.30;;;1.10;;
7033;SDS011;3558;53.176;10.412;2023-10-08T17:39:20;2.10;;;1.20;;
7033;SDS011;3558;53.176;10.412;2023-10-08T17:41:46;2.40;;;1.10;;
7033;SDS011;3558;53.176;10.412;2023-10-08T17:44:14;2.15;;;1.20;;
7033;SDS011;3558;53.176;10.412;2023-10-08T17:46:40;2.92;;;1.13;;
7033;SDS011;3558;53.176;10.412;2023-10-08T17:49:08;1.98;;;1.20;;
7033;SDS011;3558;53.176;10.412;2023-10-08T17:51:34;1.63;;;1.08;;
7033;SDS011;3558;53.176;10.412;2023-10-08T17:54:00;1.30;;;1.00;;
7033;SDS011;3558;53.176;10.412;2023-10-08T17:56:35;2.10;;;1.20;;
7033;SDS011;3558;53.176;10.412;2023-10-08T17:59:02;1.80;;;1.00;;
7033;SDS011;3558;53.176;10.412;2023-10-08T18:01:27;1.67;;;0.98;;
7033;SDS011;3558;53.176;10.412;2023-10-08T18:03:53;2.30;;;1.03;;
7033;SDS011;3558;53.176;10.412;2023-10-08T18:06:19;1.90;;;1.20;;
7033;SDS011;3558;53.176;10.412;2023-10-08T18:08:45;2.42;;;1.08;;
7033;SDS011;3558;53.176;10.412;2023-10-08T18:11:17;1.90;;;1.20;;
7033;SDS011;3558;53.176;10.412;2023-10-08T18:13:44;1.93;;;1.07;;
7033;SDS011;3558;53.176;10.412;2023-10-08T18:16:11;2.47;;;1.20;;
7033;SDS011;3558;53.176;10.412;2023-10-08T18:18:39;2.20;;;1.27;;
7033;SDS011;3558;53.176;10.412;2023-10-08T18:21:05;2.30;;;1.20;;
7033;SDS011;3558;53.176;10.412;2023-10-08T18:23:36;1.95;;;1.20;;
7033;SDS011;3558;53.176;10.412;2023-10-08T18:26:04;1.85;;;1.10;;
7033;SDS011;3558;53.176;10.412;2023-10-08T18:28:30;2.15;;;1.10;;
7033;SDS011;3558;53.176;10.412;2023-10-08T18:30:56;1.90;;;1.10;;
7033;SDS011;3558;53.176;10.412;2023-10-08T18:33:23;2.00;;;1.10;;
7033;SDS011;3558;53.176;10.412;2023-10-08T18:35:48;2.33;;;1.20;;
7033;SDS011;3558;53.176;10.412;2023-10-08T18:38:16;2.53;;;1.20;;
7033;SDS011;3558;53.176;10.412;2023-10-08T18:40:41;2.10;;;1.10;;
7033;SDS011;3558;53.176;10.412;2023-10-08T18:43:07;2.50;;;1.13;;
7033;SDS011;3558;53.176;10.412;2023-10-08T18:45:33;2.53;;;1.10;;
7033;SDS011;3558;53.176;10.412;2023-10-08T18:48:00;2.08;;;0.98;;
7033;SDS011;3558;53.176;10.412;2023-10-08T18:50:26;1.48;;;0.88;;
7033;SDS011;3558;53.176;10.412;2023-10-08T18:52:52;1.80;;;0.93;;
7033;SDS011;3558;53.176;10.412;2023-10-08T18:55:17;2.07;;;0.97;;
7033;SDS011;3558;53.176;10.412;2023-10-08T18:57:46;3.30;;;0.90;;
7033;SDS011;3558;53.176;10.412;2023-10-08T19:00:16;1.90;;;1.00;;
7033;SDS011;3558;53.176;10.412;2023-10-08T19:02:42;1.70;;;1.10;;
7033;SDS011;3558;53.176;10.412;2023-10-08T19:05:08;2.03;;;0.90;;
7033;SDS011;3558;53.176;10.412;2023-10-08T19:07:34;2.00;;;1.10;;
7033;SDS011;3558;53.176;10.412;2023-10-08T19:10:01;1.90;;;1.00;;
7033;SDS011;3558;53.176;10.412;2023-10-08T19:12:29;1.98;;;1.00;;
7033;SDS011;3558;53.176;10.412;2023-10-08T19:14:56;1.45;;;0.90;;
7033;SDS011;3558;53.176;10.412;2023-10-08T19:17:26;1.85;;;1.00;;
7033;SDS011;3558;53.176;10.412;2023-10-08T19:19:51;2.05;;;1.02;;
7033;SDS011;3558;53.176;10.412;2023-10-08T19:22:17;1.53;;;0.80;;
7033;SDS011;3558;53.176;10.412;2023-10-08T19:24:43;1.92;;;1.02;;
7033;SDS011;3558;53.176;10.412;2023-10-08T19:27:08;2.10;;;1.10;;
7033;SDS011;3558;53.176;10.412;2023-10-08T19:29:35;1.77;;;0.90;;
7033;SDS011;3558;53.176;10.412;2023-10-08T19:32:03;1.60;;;1.00;;
7033;SDS011;3558;53.176;10.412;2023-10-08T19:34:29;1.33;;;0.82;;
7033;SDS011;3558;53.176;10.412;2023-10-08T19:36:55;1.70;;;0.80;;
7033;SDS011;3558;53.176;10.412;2023-10-08T19:39:20;1.88;;;0.85;;
7033;SDS011;3558;53.176;10.412;2023-10-08T19:41:46;1.50;;;0.97;;
7033;SDS011;3558;53.176;10.412;2023-10-08T19:44:11;1.80;;;0.90;;
7033;SDS011;3558;53.176;10.412;2023-10-08T19:46:37;1.38;;;0.82;;
7033;SDS011;3558;53.176;10.412;2023-10-08T19:49:02;2.07;;;0.90;;
7033;SDS011;3558;53.176;10.412;2023-10-08T19:51:30;1.13;;;0.70;;
7033;SDS011;3558;53.176;10.412;2023-10-08T19:53:55;1.90;;;0.87;;